Time;durP1;ratioP1;P1;durP2;ratioP2;P2;SDS_P1;SDS_P2;PMS_P1;PMS_P2;Temp;Humidity;BMP_temperature;BMP_pressure;BME280_temperature;BME280_humidity;BME280_pressure;Samples;Min_cycle;Max_cycle;Signal;HPM_P1;HPM_P2
2024/03/04 00:01:05;;;;;;;0.68;0.68;;;;;;;3.99;100.00;100482.63;5054062;28;20537;-77
2024/03/04 00:03:32;;;;;;;0.20;0.20;;;;;;;4.03;100.00;100481.00;5059127;28;20045;-79
2024/03/04 00:05:59;;;;;;;0.88;0.88;;;;;;;3.77;100.00;100413.66;5066545;28;20055;-77
2024/03/04 00:08:25;;;;;;;1.17;1.17;;;;;;;4.05;100.00;100497.50;5067148;28;20093;-79
2024/03/04 00:10:51;;;;;;;3.38;3.13;;;;;;;3.40;100.00;100392.72;5062138;28;20044;-78
2024/03/04 00:13:17;;;;;;;1.63;1.52;;;;;;;4.10;100.00;100511.47;5061666;28;20083;-78
2024/03/04 00:15:43;;;;;;;0.68;0.68;;;;;;;3.51;100.00;100412.94;5057196;28;20894;-77
2024/03/04 00:18:08;;;;;;;0.95;0.93;;;;;;;3.37;100.00;100407.38;5058157;28;20586;-76
2024/03/04 00:20:34;;;;;;;0.88;0.88;;;;;;;3.44;100.00;100416.19;5058894;28;20033;-76
2024/03/04 00:23:00;;;;;;;3.22;3.05;;;;;;;3.90;100.00;100502.25;5060914;28;20063;-77
2024/03/04 00:25:25;;;;;;;0.60;0.60;;;;;;;3.21;100.00;100392.19;5063779;28;20067;-77
2024/03/04 00:27:51;;;;;;;1.60;1.50;;;;;;;3.52;100.00;100451.00;5067855;28;20129;-80
2024/03/04 00:30:17;;;;;;;5.53;5.25;;;;;;;3.54;100.00;100461.44;5067871;28;20079;-78
2024/03/04 00:32:43;;;;;;;7.03;6.75;;;;;;;3.80;100.00;100516.69;5065887;28;20028;-77
2024/03/04 00:35:10;;;;;;;0.60;0.60;;;;;;;3.26;100.00;100403.56;5062212;28;20053;-78
2024/03/04 00:37:36;;;;;;;0.63;0.63;;;;;;;3.86;100.00;100523.75;5066754;28;20041;-80
2024/03/04 00:40:06;;;;;;;0.60;0.60;;;;;;;3.27;100.00;100426.06;5062478;28;20079;-79
2024/03/04 00:42:32;;;;;;;2.58;2.40;;;;;;;3.26;100.00;100450.25;5058740;28;20044;-78
2024/03/04 00:45:02;;;;;;;0.68;0.68;;;;;;;3.62;100.00;100501.44;5063232;28;20044;-78
2024/03/04 00:47:28;;;;;;;1.15;1.08;;;;;;;3.76;100.00;100526.06;5056579;28;20071;-78
2024/03/04 00:49:54;;;;;;;0.32;0.32;;;;;;;3.29;100.00;100436.50;5063807;28;20579;-78
2024/03/04 00:52:20;;;;;;;3.03;2.85;;;;;;;3.47;100.00;100469.88;5054922;28;20049;-77
2024/03/04 00:54:46;;;;;;;0.60;0.60;;;;;;;3.78;100.00;100521.81;5061354;28;20048;-79
2024/03/04 00:57:12;;;;;;;2.90;2.72;;;;;;;3.81;100.00;100518.44;5065873;28;20037;-79
2024/03/04 00:59:38;;;;;;;0.93;0.93;;;;;;;3.10;100.00;100407.41;5049436;28;20048;-77
2024/03/04 01:02:07;;;;;;;3.25;3.05;;;;;;;3.68;100.00;100517.22;5060835;28;20045;-77
2024/03/04 01:04:33;;;;;;;3.03;2.17;;;;;;;3.76;100.00;100531.28;5066850;28;20056;-78
2024/03/04 01:06:59;;;;;;;3.80;3.20;;;;;;;3.57;100.00;100522.06;5065364;28;20143;-77
2024/03/04 01:09:24;;;;;;;1.00;1.00;;;;;;;3.52;100.00;100515.00;5061957;28;20120;-77
2024/03/04 01:11:50;;;;;;;17.80;9.55;;;;;;;3.43;100.00;100455.94;5062194;28;20159;-76
2024/03/04 01:14:15;;;;;;;1.27;1.27;;;;;;;3.07;100.00;100445.34;5056917;28;20052;-77
2024/03/04 01:16:41;;;;;;;0.40;0.40;;;;;;;3.64;100.00;100533.50;5060519;28;20079;-77
2024/03/04 01:19:07;;;;;;;1.02;1.02;;;;;;;3.55;100.00;100526.31;5068964;28;20292;-77
2024/03/04 01:21:33;;;;;;;0.57;0.57;;;;;;;3.61;100.00;100543.81;5067872;28;20044;-79
2024/03/04 01:23:58;;;;;;;2.40;2.30;;;;;;;3.54;100.00;100531.47;5064879;28;20039;-77
2024/03/04 01:26:24;;;;;;;5.28;5.07;;;;;;;3.51;100.00;100534.88;5057329;28;20061;-77
2024/03/04 01:28:49;;;;;;;0.45;0.45;;;;;;;3.21;100.00;100506.28;5058123;28;20462;-77
2024/03/04 01:31:18;;;;;;;1.48;0.90;;;;;;;3.47;100.00;100553.75;5059099;28;20048;-77
2024/03/04 01:33:47;;;;;;;5.45;5.15;;;;;;;2.81;100.00;100460.06;5061538;28;20057;-78
2024/03/04 01:36:12;;;;;;;0.60;0.60;;;;;;;3.36;100.00;100552.53;5065929;28;20064;-78
2024/03/04 01:38:38;;;;;;;6.82;6.28;;;;;;;2.92;100.00;100476.81;5058108;28;20161;-76
2024/03/04 01:41:04;;;;;;;0.68;0.50;;;;;;;3.49;100.00;100572.84;5065510;28;20067;-78
2024/03/04 01:43:29;;;;;;;1.25;1.25;;;;;;;2.94;100.00;100483.81;5062156;28;20546;-78
2024/03/04 01:45:55;;;;;;;0.90;0.90;;;;;;;3.51;100.00;100571.19;5058087;28;20412;-78
2024/03/04 01:48:22;;;;;;;28.75;3.58;;;;;;;3.57;100.00;100575.66;5060905;28;20118;-78
2024/03/04 01:50:50;;;;;;;5.90;5.43;;;;;;;2.89;100.00;100446.50;5058700;28;20079;-76
2024/03/04 01:53:17;;;;;;;1.90;1.80;;;;;;;2.94;100.00;100457.03;5076067;28;20076;-78
2024/03/04 01:55:45;;;;;;;1.50;0.75;;;;;;;3.54;100.00;100568.69;5063786;28;20032;-77
2024/03/04 01:58:12;;;;;;;5.13;4.82;;;;;;;3.19;100.00;100510.53;5063750;28;20048;-81
2024/03/04 02:00:44;;;;;;;0.30;0.30;;;;;;;3.04;100.00;100491.88;5056330;28;20060;-76
2024/03/04 02:03:14;;;;;;;4.35;4.15;;;;;;;2.89;100.00;100489.69;5065159;28;20040;-79
2024/03/04 02:05:41;;;;;;;7.20;6.90;;;;;;;3.42;100.00;100594.25;5047349;28;20907;-78
2024/03/04 02:08:11;;;;;;;4.72;4.43;;;;;;;2.81;100.00;100475.59;5058115;28;20056;-78
2024/03/04 02:10:37;;;;;;;2.05;1.95;;;;;;;3.30;100.00;100571.41;5054598;28;20044;-78
2024/03/04 02:13:04;;;;;;;14.57;13.68;;;;;;;3.31;100.00;100599.06;5055754;28;20560;-76
2024/03/04 02:15:34;;;;;;;6.97;6.63;;;;;;;3.23;100.00;100576.31;5058732;28;20970;-77
2024/03/04 02:18:00;;;;;;;0.60;0.60;;;;;;;3.14;100.00;100588.16;5062398;28;20083;-78
2024/03/04 02:20:27;;;;;;;0.82;0.82;;;;;;;3.18;100.00;100599.50;5061035;28;20568;-79
2024/03/04 02:22:54;;;;;;;1.40;1.30;;;;;;;3.04;100.00;100591.25;5061424;28;20052;-77
2024/03/04 02:25:22;;;;;;;3.92;2.10;;;;;;;2.46;100.00;100494.34;5065319;28;20121;-78
2024/03/04 02:27:48;;;;;;;0.60;0.60;;;;;;;2.99;100.00;100591.94;5064349;28;20049;-78
2024/03/04 02:30:14;;;;;;;1.27;1.17;;;;;;;2.63;100.00;100525.13;5062419;28;20079;-78
2024/03/04 02:32:41;;;;;;;1.60;1.50;;;;;;;2.82;100.00;100562.88;5068391;28;20029;-78
2024/03/04 02:35:10;;;;;;;0.50;0.50;;;;;;;3.09;100.00;100625.13;5063870;28;20056;-77
2024/03/04 02:37:37;;;;;;;0.50;0.50;;;;;;;2.53;100.00;100510.97;5065367;28;20102;-77
2024/03/04 02:40:06;;;;;;;0.30;0.30;;;;;;;3.11;100.00;100623.47;5063830;28;20044;-77
2024/03/04 02:42:34;;;;;;;11.00;10.48;;;;;;;2.59;100.00;100534.47;5067343;28;20040;-77
2024/03/04 02:45:00;;;;;;;1.50;1.40;;;;;;;3.03;100.00;100620.63;5061548;28;20032;-78
2024/03/04 02:47:26;;;;;;;0.82;0.82;;;;;;;2.53;100.00;100534.28;5062220;28;20029;-77
2024/03/04 02:49:51;;;;;;;0.30;0.30;;;;;;;2.47;100.00;100524.56;5062601;28;20048;-78
2024/03/04 02:52:17;;;;;;;3.55;3.35;;;;;;;2.47;100.00;100539.25;5058348;28;20053;-77
2024/03/04 02:54:42;;;;;;;13.30;12.20;;;;;;;3.01;100.00;100639.53;5062415;28;20044;-76
2024/03/04 02:57:08;;;;;;;80.82;25.73;;;;;;;3.05;100.00;100659.56;5068497;28;20089;-77
2024/03/04 02:59:33;;;;;;;2.67;2.50;;;;;;;3.02;100.00;100669.81;5069200;28;20033;-77
2024/03/04 03:01:59;;;;;;;27.65;9.82;;;;;;;2.33;100.00;100550.00;5055885;28;20033;-76
2024/03/04 03:04:25;;;;;;;1.52;1.52;;;;;;;2.24;100.00;100544.47;5060280;28;20164;-76
2024/03/04 03:06:51;;;;;;;4.57;4.18;;;;;;;2.84;100.00;100652.81;5067804;28;20404;-79
2024/03/04 03:09:17;;;;;;;4.60;4.28;;;;;;;2.43;100.00;100590.03;5068810;28;20064;-77
2024/03/04 03:11:43;;;;;;;0.40;0.40;;;;;;;2.43;100.00;100628.00;5067683;28;20075;-77
2024/03/04 03:14:08;;;;;;;1.52;1.42;;;;;;;2.88;100.00;100706.50;5068436;28;20348;-77
2024/03/04 03:16:34;;;;;;;12.00;6.22;;;;;;;2.87;100.00;100701.25;5069004;28;20520;-77
2024/03/04 03:19:00;;;;;;;2.42;2.33;;;;;;;2.18;100.00;100593.47;5057566;28;20055;-76
2024/03/04 03:21:28;;;;;;;3.67;3.47;;;;;;;2.72;100.00;100705.06;5067835;28;20119;-77
2024/03/04 03:23:55;;;;;;;10.55;9.75;;;;;;;2.71;100.00;100702.41;5064273;28;20123;-76
2024/03/04 03:26:22;;;;;;;1.33;1.23;;;;;;;2.61;100.00;100701.19;5066153;28;20028;-76
2024/03/04 03:28:48;;;;;;;0.77;0.77;;;;;;;2.71;100.00;100733.50;5064489;28;20151;-77
2024/03/04 03:31:15;;;;;;;1.10;1.10;;;;;;;2.62;100.00;100727.97;5057972;28;20127;-76
2024/03/04 03:33:41;;;;;;;2.65;2.35;;;;;;;2.65;100.00;100739.34;5063596;28;20171;-78
2024/03/04 03:36:07;;;;;;;22.38;6.43;;;;;;;2.58;100.00;100721.81;5063800;28;20054;-78
2024/03/04 03:38:33;;;;;;;1.05;1.05;;;;;;;2.14;100.00;100656.28;5067445;28;20067;-76
2024/03/04 03:41:00;;;;;;;1.92;1.85;;;;;;;2.59;100.00;100744.28;5061780;28;20044;-77
2024/03/04 03:43:25;;;;;;;4.13;3.80;;;;;;;2.63;100.00;100787.63;5060014;28;20040;-78
2024/03/04 03:45:51;;;;;;;23.45;21.35;;;;;;;2.09;100.00;100700.13;5058322;28;20145;-78
2024/03/04 03:48:18;;;;;;;0.40;0.40;;;;;;;2.58;100.00;100822.84;5057421;28;20175;-79
2024/03/04 03:50:47;;;;;;;1.77;1.67;;;;;;;2.68;100.00;100858.63;5058135;28;20060;-78
2024/03/04 03:53:13;;;;;;;0.50;0.50;;;;;;;1.96;100.00;100769.44;5061636;28;20044;-78
2024/03/04 03:55:40;;;;;;;0.90;0.90;;;;;;;2.44;100.00;100888.75;5065991;28;20144;-79
2024/03/04 03:58:06;;;;;;;0.60;0.60;;;;;;;2.42;100.00;100924.06;5066095;28;20102;-77
2024/03/04 04:00:31;;;;;;;0.40;0.40;;;;;;;1.92;100.00;100832.22;5066132;28;20463;-76
2024/03/04 04:02:57;;;;;;;1.70;1.63;;;;;;;1.87;100.00;100837.22;5080206;28;20155;-76
2024/03/04 04:05:23;;;;;;;1.17;1.17;;;;;;;2.14;100.00;100902.19;5061460;28;20131;-76
2024/03/04 04:07:48;;;;;;;13.25;8.13;;;;;;;1.75;100.00;100854.81;5066237;28;20067;-77
2024/03/04 04:10:14;;;;;;;3.20;2.90;;;;;;;1.86;100.00;100900.16;5064295;28;20045;-76
2024/03/04 04:12:40;;;;;;;5.82;5.30;;;;;;;2.51;100.00;101017.69;5058521;28;20044;-75
2024/03/04 04:15:06;;;;;;;1.05;1.05;;;;;;;2.63;100.00;101027.69;5055890;28;20086;-77
2024/03/04 04:17:32;;;;;;;4.00;3.80;;;;;;;2.45;100.00;101045.91;5055276;28;20029;-78
2024/03/04 04:19:57;;;;;;;2.25;2.05;;;;;;;0.95;100.00;100820.28;5051017;28;20056;-76
2024/03/04 04:22:25;;;;;;;0.88;0.88;;;;;;;2.30;100.00;101061.66;5058709;28;20044;-76
2024/03/04 04:24:51;;;;;;;2.05;1.95;;;;;;;2.18;100.00;101043.91;5055432;28;20565;-77
2024/03/04 04:27:16;;;;;;;2.13;2.03;;;;;;;1.96;100.00;101010.09;5064289;28;20045;-76
2024/03/04 04:29:42;;;;;;;0.30;0.30;;;;;;;2.30;100.00;101110.88;5058821;28;20530;-76
2024/03/04 04:32:07;;;;;;;0.60;0.60;;;;;;;2.13;100.00;101091.09;5059961;28;20080;-76
2024/03/04 04:34:33;;;;;;;1.70;1.60;;;;;;;2.36;100.00;101142.19;5054806;28;20040;-75
2024/03/04 04:36:59;;;;;;;25.02;22.70;;;;;;;1.60;100.00;101024.03;5057036;28;20053;-76
2024/03/04 04:39:25;;;;;;;1.00;1.00;;;;;;;2.41;100.00;101157.94;5052875;28;20068;-77
2024/03/04 04:41:50;;;;;;;1.67;1.60;;;;;;;2.30;100.00;101148.00;5057277;28;20066;-77
2024/03/04 04:44:16;;;;;;;11.00;7.43;;;;;;;2.45;100.00;101172.81;5055590;28;20059;-77
2024/03/04 04:46:42;;;;;;;3.85;3.63;;;;;;;1.80;100.00;101049.94;5066551;28;20078;-75
2024/03/04 04:49:08;;;;;;;2.67;2.58;;;;;;;1.65;100.00;101047.53;5063431;28;20076;-76
2024/03/04 04:51:33;;;;;;;7.25;6.65;;;;;;;2.55;100.00;101182.75;5063791;28;20095;-77
2024/03/04 04:53:59;;;;;;;37.00;18.77;;;;;;;2.71;100.00;101180.03;5065126;28;20036;-78
2024/03/04 04:56:25;;;;;;;3.55;3.35;;;;;;;2.71;100.00;101205.06;5066813;28;20075;-76
2024/03/04 04:58:50;;;;;;;2.45;2.30;;;;;;;2.56;100.00;101162.94;5063554;28;20063;-75
2024/03/04 05:01:29;;;;;;;8.27;7.85;;;;;;;2.70;100.00;101179.97;5057214;28;20106;-77
2024/03/04 05:03:55;;;;;;;1.88;1.80;;;;;;;2.38;100.00;101168.19;5057604;28;20094;-77
2024/03/04 05:06:21;;;;;;;9.20;8.77;;;;;;;2.56;100.00;101196.63;5062109;28;20041;-78
2024/03/04 05:08:48;;;;;;;0.98;0.88;;;;;;;2.60;100.00;101180.38;5060119;28;20025;-75
2024/03/04 05:11:15;;;;;;;33.17;29.80;;;;;;;2.53;100.00;101190.47;5064633;28;20052;-75
2024/03/04 05:13:40;;;;;;;2.95;2.78;;;;;;;2.51;100.00;101196.41;5063697;28;20044;-77
2024/03/04 05:16:06;;;;;;;2.03;1.92;;;;;;;2.78;100.00;101201.91;5062347;28;20029;-76
2024/03/04 05:18:32;;;;;;;1.08;1.02;;;;;;;2.37;100.00;101074.06;5061491;28;20450;-77
2024/03/04 05:20:57;;;;;;;15.55;14.15;;;;;;;2.67;100.00;101089.16;5063143;28;20024;-78
2024/03/04 05:23:23;;;;;;;7.13;6.47;;;;;;;2.33;100.00;101077.34;5059880;28;20037;-76
2024/03/04 05:25:49;;;;;;;0.50;0.50;;;;;;;2.79;100.00;101141.50;5063836;28;20051;-76
2024/03/04 05:28:15;;;;;;;5.30;4.97;;;;;;;2.02;100.00;101013.84;5063532;28;20464;-75
2024/03/04 05:30:41;;;;;;;4.57;4.22;;;;;;;2.83;100.00;101121.78;5058878;28;20041;-76
2024/03/04 05:33:07;;;;;;;0.55;0.55;;;;;;;2.30;100.00;100991.75;5062084;28;20052;-76
2024/03/04 05:35:33;;;;;;;3.63;3.50;;;;;;;2.78;100.00;101076.66;5065914;28;20103;-77
2024/03/04 05:37:59;;;;;;;1.95;1.85;;;;;;;2.29;100.00;100952.03;5060482;28;20508;-77
2024/03/04 05:40:26;;;;;;;1.02;1.02;;;;;;;2.82;100.00;101052.66;5061958;28;20066;-78
2024/03/04 05:42:52;;;;;;;2.45;2.30;;;;;;;1.94;100.00;100867.69;5067320;28;20355;-77
2024/03/04 05:45:18;;;;;;;54.30;22.98;;;;;;;2.53;100.00;100953.88;5063388;28;20048;-77
2024/03/04 05:47:44;;;;;;;2.50;1.00;;;;;;;3.04;100.00;101016.41;5079263;28;20060;-76
2024/03/04 05:50:14;;;;;;;0.30;0.30;;;;;;;2.53;100.00;100908.13;5063639;28;20083;-77
2024/03/04 05:52:40;;;;;;;7.03;6.60;;;;;;;2.57;100.00;100916.03;5061236;28;20388;-77
2024/03/04 05:55:06;;;;;;;2.17;2.05;;;;;;;3.19;100.00;100987.63;5065198;28;20049;-76
2024/03/04 05:57:33;;;;;;;1.50;1.42;;;;;;;3.02;100.00;100971.41;5063603;28;20489;-77
2024/03/04 05:59:59;;;;;;;8.93;8.38;;;;;;;2.30;100.00;100852.81;5064938;28;20082;-76
2024/03/04 06:02:25;;;;;;;2.25;2.15;;;;;;;3.02;100.00;100965.31;5064838;28;20024;-77
2024/03/04 06:04:51;;;;;;;3.45;2.25;;;;;;;2.40;100.00;100845.41;5054438;28;20052;-75
2024/03/04 06:07:16;;;;;;;7.90;7.25;;;;;;;2.98;100.00;100934.94;5064176;28;20450;-76
2024/03/04 06:09:43;;;;;;;1.05;1.05;;;;;;;3.10;100.00;100932.81;5063579;28;20044;-75
2024/03/04 06:12:09;;;;;;;2.05;1.95;;;;;;;3.06;100.00;100900.69;5064587;28;20039;-75
2024/03/04 06:14:34;;;;;;;3.85;3.65;;;;;;;3.52;100.00;100917.97;5062941;28;20439;-77
2024/03/04 06:17:00;;;;;;;2.03;1.92;;;;;;;3.66;100.00;100915.88;5060653;28;20059;-77
2024/03/04 06:19:25;;;;;;;1.80;1.70;;;;;;;2.90;100.00;100805.94;5053769;28;20488;-76
2024/03/04 06:21:51;;;;;;;2.55;1.00;;;;;;;3.33;100.00;100884.41;5060529;28;20037;-77
2024/03/04 06:24:16;;;;;;;0.88;0.88;;;;;;;2.99;100.00;100783.75;5059518;28;20045;-77
2024/03/04 06:26:43;;;;;;;2.05;1.95;;;;;;;3.45;100.00;100790.59;5059391;28;20115;-76
2024/03/04 06:29:08;;;;;;;1.48;1.38;;;;;;;3.95;100.00;100874.47;5060881;28;20419;-76
2024/03/04 06:31:34;;;;;;;6.85;6.22;;;;;;;3.72;100.00;100808.81;5056627;28;20044;-79
2024/03/04 06:33:59;;;;;;;3.42;3.22;;;;;;;4.16;100.00;100870.00;5062261;28;20193;-77
2024/03/04 06:36:25;;;;;;;7.63;7.00;;;;;;;4.25;100.00;100851.25;5064484;28;20472;-78
2024/03/04 06:38:50;;;;;;;3.28;3.03;;;;;;;3.32;100.00;100714.94;5061371;28;20037;-76
2024/03/04 06:41:17;;;;;;;1.02;0.93;;;;;;;3.76;100.00;100751.00;5050418;28;20047;-76
2024/03/04 06:43:43;;;;;;;0.60;0.60;;;;;;;4.40;100.00;100824.88;5057718;28;20052;-76
2024/03/04 06:46:09;;;;;;;0.40;0.40;;;;;;;4.10;100.00;100749.50;5063435;28;20129;-78
2024/03/04 06:48:35;;;;;;;0.63;0.63;;;;;;;4.44;100.00;100801.63;5060782;28;20094;-77
2024/03/04 06:51:02;;;;;;;2.40;2.30;;;;;;;4.29;100.00;100759.63;5059034;28;20048;-77
2024/03/04 06:53:28;;;;;;;4.32;4.13;;;;;;;4.10;100.00;100718.34;5062870;28;20029;-77
2024/03/04 06:55:54;;;;;;;1.63;1.52;;;;;;;4.13;100.00;100688.13;5063089;28;20831;-75
2024/03/04 06:58:19;;;;;;;1.58;1.55;;;;;;;4.60;100.00;100794.31;5064884;28;20040;-77
2024/03/04 07:00:46;;;;;;;2.28;0.55;;;;;;;4.40;100.00;100727.06;5055951;28;20060;-77
2024/03/04 07:03:11;;;;;;;10.32;9.77;;;;;;;4.96;100.00;100767.63;5050298;28;20067;-81
2024/03/04 07:05:37;;;;;;;0.80;0.73;;;;;;;4.83;100.00;100754.28;5050098;28;20269;-76
2024/03/04 07:08:03;;;;;;;2.17;2.08;;;;;;;4.58;100.00;100651.34;5051546;28;20048;-76
2024/03/04 07:10:29;;;;;;;4.97;4.18;;;;;;;5.00;100.00;100744.38;5050748;28;20045;-73
2024/03/04 07:12:54;;;;;;;6.78;6.32;;;;;;;5.18;100.00;100746.59;5052494;28;20155;-75
2024/03/04 07:15:20;;;;;;;19.55;6.15;;;;;;;5.18;100.00;100720.59;5054713;28;20094;-75
2024/03/04 07:17:46;;;;;;;1.77;1.67;;;;;;;5.27;100.00;100719.97;5056165;28;20033;-75
2024/03/04 07:20:11;;;;;;;0.95;0.63;;;;;;;5.53;100.00;100732.78;5053425;28;20613;-75
2024/03/04 07:22:37;;;;;;;0.95;0.95;;;;;;;5.42;100.00;100715.13;5054565;28;20896;-76
2024/03/04 07:25:05;;;;;;;3.90;3.70;;;;;;;5.57;100.00;100709.47;5054488;28;20060;-79
2024/03/04 07:27:30;;;;;;;0.30;0.30;;;;;;;5.40;100.00;100695.13;5053889;28;20115;-77
2024/03/04 07:29:56;;;;;;;4.72;4.50;;;;;;;5.54;100.00;100682.47;5055786;28;20040;-75
2024/03/04 07:32:21;;;;;;;0.95;0.95;;;;;;;5.71;100.00;100700.25;5055177;28;20532;-77
2024/03/04 07:34:48;;;;;;;1.98;1.88;;;;;;;5.92;100.00;100699.00;5054558;28;20111;-78
2024/03/04 07:37:15;;;;;;;0.68;0.68;;;;;;;5.13;100.00;100552.22;5053046;28;20098;-79
2024/03/04 07:39:41;;;;;;;1.40;1.30;;;;;;;5.66;100.00;100652.38;5053921;28;20131;-75
2024/03/04 07:42:07;;;;;;;0.30;0.30;;;;;;;5.97;100.00;100653.16;5054749;28;20032;-79
2024/03/04 07:44:39;;;;;;;10.35;6.43;;;;;;;6.20;100.00;100671.00;5052952;28;20048;-79
2024/03/04 07:47:05;;;;;;;2.05;1.95;;;;;;;5.99;100.00;100620.19;5053764;28;20055;-78
2024/03/04 07:49:30;;;;;;;1.83;1.70;;;;;;;5.85;100.00;100577.31;5054859;28;20056;-78
2024/03/04 07:51:56;;;;;;;0.20;0.20;;;;;;;5.91;100.00;100573.13;5053177;28;20048;-76
2024/03/04 07:54:21;;;;;;;2.25;2.03;;;;;;;6.42;100.00;100620.22;5052233;28;20056;-76
2024/03/04 07:56:47;;;;;;;0.65;0.65;;;;;;;6.39;100.00;100608.03;5055946;28;20035;-81
2024/03/04 07:59:12;;;;;;;1.10;1.00;;;;;;;6.91;100.00;100647.25;5056289;28;20056;-77
2024/03/04 08:01:48;;;;;;;1.38;1.38;;;;;;;6.47;100.00;100556.03;5059424;28;20070;-77
2024/03/04 08:04:14;;;;;;;3.22;3.03;;;;;;;6.90;100.00;100612.44;5056169;28;20040;-80
2024/03/04 08:06:39;;;;;;;0.45;0.45;;;;;;;7.10;100.00;100610.19;5070552;28;20101;-76
2024/03/04 08:09:05;;;;;;;0.47;0.47;;;;;;;7.38;100.00;100621.97;5066419;28;20109;-78
2024/03/04 08:11:31;;;;;;;1.75;1.65;;;;;;;7.30;100.00;100615.75;5051250;28;20044;-78
2024/03/04 08:13:56;;;;;;;0.90;0.90;;;;;;;7.67;100.00;100612.84;5051028;28;20141;-76
2024/03/04 08:16:22;;;;;;;1.67;1.60;;;;;;;7.80;100.00;100605.22;5055003;28;20109;-78
2024/03/04 08:18:48;;;;;;;2.60;2.40;;;;;;;7.70;100.00;100599.81;5054357;28;20824;-80
2024/03/04 08:21:15;;;;;;;2.65;0.90;;;;;;;7.86;100.00;100593.09;5051382;28;20052;-75
2024/03/04 08:23:40;;;;;;;1.30;1.20;;;;;;;7.80;100.00;100568.66;5052765;28;21281;-79
2024/03/04 08:26:06;;;;;;;0.77;0.77;;;;;;;7.03;100.00;100463.97;5054735;28;20052;-82
2024/03/04 08:28:33;;;;;;;1.38;1.27;;;;;;;7.87;100.00;100553.06;5055177;28;20059;-76
2024/03/04 08:30:59;;;;;;;0.30;0.30;;;;;;;7.50;100.00;100549.94;5054491;28;20056;-80
2024/03/04 08:33:24;;;;;;;6.65;6.25;;;;;;;7.24;100.00;100468.63;5051072;28;20090;-77
2024/03/04 08:35:50;;;;;;;9.52;9.05;;;;;;;7.88;100.00;100563.50;5053061;28;20115;-78
2024/03/04 08:38:17;;;;;;;3.75;3.45;;;;;;;7.39;100.00;100434.91;5058652;28;20060;-78
2024/03/04 08:40:43;;;;;;;0.70;0.70;;;;;;;8.05;100.00;100548.03;5051766;28;20048;-77
2024/03/04 08:43:09;;;;;;;6.53;3.42;;;;;;;7.68;100.00;100437.00;5053428;28;20591;-75
2024/03/04 08:45:34;;;;;;;0.57;0.57;;;;;;;8.24;100.00;100538.69;5052384;28;20135;-80
2024/03/04 08:48:00;;;;;;;1.05;0.95;;;;;;;8.42;100.00;100548.53;5053168;28;20044;-80
2024/03/04 08:50:25;;;;;;;1.77;1.25;;;;;;;8.25;100.00;100475.09;5053882;28;20044;-79
2024/03/04 08:52:51;;;;;;;1.90;0.98;;;;;;;8.40;100.00;100516.25;5067115;28;20045;-78
2024/03/04 08:55:17;;;;;;;1.48;1.38;;;;;;;8.99;100.00;100538.59;5052751;28;20049;-83
2024/03/04 08:57:42;;;;;;;0.30;0.30;;;;;;;8.68;100.00;100456.38;5054609;28;20548;-84
2024/03/04 09:00:10;;;;;;;1.90;1.80;;;;;;;8.25;100.00;100396.69;5053551;28;20476;-84
2024/03/04 09:02:35;;;;;;;0.40;0.40;;;;;;;8.69;100.00;100515.69;5068486;28;20068;-84
2024/03/04 09:05:01;;;;;;;0.88;0.88;;;;;;;8.98;100.00;100542.09;5055588;28;20139;-82
2024/03/04 09:07:29;;;;;;;28.45;20.35;;;;;;;8.76;100.00;100473.00;5055397;28;20487;-82
2024/03/04 09:09:55;;;;;;;0.75;0.75;;;;;;;9.30;100.00;100544.97;5053973;28;20063;-81
2024/03/04 09:12:27;;;;;;;0.40;0.40;;;;;;;9.52;100.00;100539.00;5059721;28;20060;-80
2024/03/04 09:14:52;;;;;;;0.75;0.60;;;;;;;9.68;100.00;100531.22;5060443;28;20075;-85
2024/03/04 09:17:18;;;;;;;4.93;4.28;;;;;;;9.78;100.00;100534.78;5053414;28;20041;-83
2024/03/04 09:19:44;;;;;;;2.08;0.90;;;;;;;9.86;100.00;100496.41;5052795;28;20693;-80
2024/03/04 09:22:10;;;;;;;0.30;0.30;;;;;;;9.48;100.00;100483.97;5051314;28;20403;-85
2024/03/04 09:24:36;;;;;;;7.57;5.80;;;;;;;9.67;100.00;100479.72;5054082;28;20167;-85
2024/03/04 09:27:02;;;;;;;0.30;0.30;;;;;;;9.57;100.00;100425.50;5051842;28;20502;-83
2024/03/04 09:29:28;;;;;;;5.55;4.45;;;;;;;9.56;100.00;100405.44;5054641;28;20028;-85
2024/03/04 09:31:54;;;;;;;2.40;2.20;;;;;;;9.47;100.00;100395.78;5049059;28;21151;-81
2024/03/04 09:34:19;;;;;;;1.10;1.08;;;;;;;10.48;100.00;100497.47;5055467;28;20052;-86
2024/03/04 09:36:45;;;;;;;0.30;0.30;;;;;;;9.33;100.00;100372.16;5053299;28;20052;-85
2024/03/04 09:39:11;;;;;;;0.28;0.28;;;;;;;10.21;100.00;100506.09;5052844;28;20040;-85
2024/03/04 09:41:37;;;;;;;0.30;0.30;;;;;;;9.97;100.00;100396.81;5050093;28;20036;-81
2024/03/04 09:44:03;;;;;;;5.78;5.38;;;;;;;9.43;100.00;100405.34;5034911;28;20052;-81
2024/03/04 09:46:31;;;;;;;0.65;0.65;;;;;;;10.19;100.00;100466.78;5031716;28;20045;-80
2024/03/04 09:48:59;;;;;;;9.88;3.67;;;;;;;10.24;100.00;100451.06;5032825;28;20380;-81
2024/03/04 09:51:28;;;;;;;0.60;0.60;;;;;;;10.02;100.00;100416.03;5037096;28;20527;-81
2024/03/04 09:53:57;;;;;;;0.30;0.30;;;;;;;10.45;100.00;100400.41;5053113;28;20045;-81
2024/03/04 09:56:24;;;;;;;0.75;0.75;;;;;;;10.64;100.00;100495.75;5053164;28;20053;-83
2024/03/04 09:58:50;;;;;;;3.90;3.60;;;;;;;10.01;100.00;100380.22;5052165;28;20075;-80
2024/03/04 10:01:17;;;;;;;3.28;3.03;;;;;;;10.19;100.00;100460.69;5053905;28;20045;-81
2024/03/04 10:03:44;;;;;;;0.55;0.55;;;;;;;10.44;100.00;100457.25;5047688;28;20052;-83
2024/03/04 10:06:10;;;;;;;0.73;0.40;;;;;;;10.77;100.00;100472.16;5052978;28;20037;-86
2024/03/04 10:08:36;;;;;;;5.35;3.90;;;;;;;10.62;100.00;100435.38;5054695;28;20040;-79
2024/03/04 10:11:02;;;;;;;0.65;0.65;;;;;;;10.95;100.00;100473.00;5053992;28;20550;-81
2024/03/04 10:13:29;;;;;;;0.55;0.55;;;;;;;10.48;100.00;100377.66;5052133;28;20174;-78
2024/03/04 10:15:54;;;;;;;2.15;2.05;;;;;;;10.79;100.00;100466.88;5051302;28;20139;-75
2024/03/04 10:18:20;;;;;;;0.40;0.40;;;;;;;11.01;100.00;100441.50;5050025;28;20053;-75
2024/03/04 10:20:45;;;;;;;2.60;2.50;;;;;;;11.37;100.00;100463.31;5053518;28;20659;-77
2024/03/04 10:23:12;;;;;;;0.40;0.40;;;;;;;10.77;100.00;100363.66;5048049;28;20661;-76
2024/03/04 10:25:37;;;;;;;5.68;4.57;;;;;;;11.20;100.00;100379.31;5053881;28;20053;-80
2024/03/04 10:28:05;;;;;;;3.30;2.92;;;;;;;11.92;100.00;100450.00;5053146;28;20044;-75
2024/03/04 10:30:32;;;;;;;1.92;1.80;;;;;;;11.84;100.00;100450.00;5052731;28;20049;-76
2024/03/04 10:33:04;;;;;;;4.38;2.72;;;;;;;11.59;100.00;100354.63;5050041;28;20036;-77
2024/03/04 10:35:31;;;;;;;5.10;4.60;;;;;;;12.07;100.00;100388.56;5052057;28;20040;-76
2024/03/04 10:38:02;;;;;;;2.75;2.50;;;;;;;11.25;100.00;100363.53;5051802;28;20158;-80
2024/03/04 10:40:28;;;;;;;3.90;3.47;;;;;;;11.67;100.00;100446.56;5049873;28;20062;-78
2024/03/04 10:42:58;;;;;;;3.83;2.13;;;;;;;11.33;100.00;100354.75;5050442;28;20350;-77
2024/03/04 10:45:31;;;;;;;8.52;4.15;;;;;;;11.88;100.00;100355.38;5053334;28;20439;-76
2024/03/04 10:47:57;;;;;;;3.30;2.78;;;;;;;12.70;100.00;100439.84;5056580;28;20032;-80
2024/03/04 10:50:23;;;;;;;2.60;2.40;;;;;;;12.88;100.00;100418.63;5054701;28;20067;-75
2024/03/04 10:52:48;;;;;;;2.10;1.90;;;;;;;13.42;100.00;100428.63;5050614;28;20413;-77
2024/03/04 10:55:14;;;;;;;6.28;4.20;;;;;;;13.04;100.00;100432.50;5054749;28;20462;-76
2024/03/04 10:57:45;;;;;;;4.50;3.47;;;;;;;12.06;100.00;100341.22;5055639;28;21219;-76
2024/03/04 11:00:17;;;;;;;5.85;5.35;;;;;;;12.30;100.00;100333.13;5055304;28;20037;-76
2024/03/04 11:03:12;;;;;;;4.10;3.67;;;;;;;12.62;100.00;100422.34;5053794;28;20036;-75
2024/03/04 11:05:43;;;;;;;3.22;2.88;;;;;;;13.28;100.00;100407.72;5055267;28;20056;-77
2024/03/04 11:08:16;;;;;;;2.88;2.10;;;;;;;14.44;100.00;100394.66;5053251;28;20053;-75
2024/03/04 11:10:55;;;;;;;12.52;4.32;;;;;;;14.73;100.00;100396.00;5051773;28;20068;-76
2024/03/04 11:13:51;;;;;;;4.22;3.83;;;;;;;13.78;100.00;100342.91;5052122;28;20118;-76
2024/03/04 11:16:27;;;;;;;3.63;3.33;;;;;;;12.98;100.00;100311.41;5054131;28;20053;-75
2024/03/04 11:19:05;;;;;;;3.67;2.85;;;;;;;13.88;100.00;100399.94;5053454;28;20053;-76
2024/03/04 11:21:33;;;;;;;4.55;4.15;;;;;;;14.07;100.00;100352.16;5054239;28;20053;-74